Saint Charles, Michigan
Current Conditions -  °F | °C
As of 3:53 PM on Thursday 27 Nov 2014 (Local Time) from KMBS Reporting Station
Overcast Overcast  
Wind Chill: 18°   Ceiling: 3600
Heat Index: 29°   Visibility: 10mi
Dew Point: 15°   Wind: 14mph
Humidity: 56%   Direction: 310°NW
Pressure: 30.22"   Gusts: NA
Location:  43.3°N, 84.14°W
Report Text: KMBS 272053Z 31012KT 10SM OVC036 M02/M09 A3022 RMK AO2 SLP241 T10171094 53010
Loading
Personal Weather Stations






























Interactive Weather Map New forecast layout! Learn more

10-Day Weather Forecast

Advertisements
Track Severe Weather on mobile